Terminal Aerodrome Forecast
Issued by NWS

Home | Current Version | Previous Version | Graphics & Text | Print | Product List | Glossary On
Versions: 1 2 3 4 5 6 7 8 9 10 11 12 13 14 15 16
000
FTUS43 KICT 150744 AAB
TAFSLN
TAF AMD
KSLN 150744Z 1508/1606 35015KT 3SM -SN SCT007 OVC015
      TEMPO 1508/1512 1SM -SN BR BKN007 OVC012
     FM151300 36015G23KT P6SM VCSH OVC050
     FM151500 34020G30KT P6SM BKN120=

USA.gov is the U.S. government's official web portal to all federal, state and local government web resources and services.